Time;durP1;ratioP1;P1;durP2;ratioP2;P2;SDS_P1;SDS_P2;PMS_P1;PMS_P2;Temp;Humidity;BMP_temperature;BMP_pressure;BME280_temperature;BME280_humidity;BME280_pressure;Samples;Min_cycle;Max_cycle;Signal;HPM_P1;HPM_P2
2022/05/27 05:01:49;;;;;;;3.78;1.55;;;15.30;92.90;;;;;;6080022;23;21123;31
2022/05/27 05:04:15;;;;;;;5.32;1.50;;;15.40;93.00;;;;;;6085037;23;20296;-79
2022/05/27 05:06:42;;;;;;;4.95;1.77;;;15.50;92.80;;;;;;6132955;23;20009;-79
2022/05/27 05:09:09;;;;;;;3.53;1.48;;;15.60;92.60;;;;;;6109605;23;20046;-80
2022/05/27 05:11:34;;;;;;;4.05;1.77;;;15.70;92.70;;;;;;6134414;23;19997;-79
2022/05/27 05:14:00;;;;;;;3.75;1.73;;;15.70;92.40;;;;;;6109543;23;20017;-78
2022/05/27 05:16:27;;;;;;;4.65;1.50;;;15.80;92.30;;;;;;6126486;23;20057;-80
2022/05/27 05:18:52;;;;;;;3.70;1.33;;;15.90;92.00;;;;;;6138474;23;20001;-80
2022/05/27 05:21:19;;;;;;;2.72;1.30;;;15.90;91.80;;;;;;6163876;23;20045;-80
2022/05/27 05:23:45;;;;;;;3.60;1.38;;;16.00;91.70;;;;;;6137283;23;20018;-77
2022/05/27 05:26:12;;;;;;;5.90;1.65;;;16.00;91.90;;;;;;6164106;23;20002;-78
2022/05/27 05:28:38;;;;;;;6.85;1.60;;;16.00;91.80;;;;;;6163505;23;20001;-78
2022/05/27 05:31:06;;;;;;;3.50;1.27;;;16.10;91.70;;;;;;6164177;23;20009;-79
2022/05/27 05:33:33;;;;;;;4.55;1.38;;;16.10;91.60;;;;;;6164300;23;20009;-78
2022/05/27 05:35:59;;;;;;;3.60;1.60;;;16.20;91.40;;;;;;6141615;23;19993;-78
2022/05/27 05:38:26;;;;;;;3.67;1.20;;;16.30;91.40;;;;;;6164115;23;20002;-78
2022/05/27 05:40:52;;;;;;;4.45;1.30;;;16.40;91.30;;;;;;6163765;23;20453;-79
2022/05/27 05:43:18;;;;;;;3.33;1.58;;;16.50;91.10;;;;;;6113745;23;20024;-79
2022/05/27 05:45:43;;;;;;;4.85;1.30;;;16.50;91.10;;;;;;6163660;23;20017;-79
2022/05/27 05:48:09;;;;;;;5.05;1.67;;;16.50;91.00;;;;;;6138464;23;20001;-78
2022/05/27 05:50:35;;;;;;;2.25;1.27;;;16.60;90.90;;;;;;6163531;23;20002;-79
2022/05/27 05:53:01;;;;;;;2.90;1.30;;;16.60;91.00;;;;;;6138592;23;20052;-78
2022/05/27 05:55:27;;;;;;;3.92;1.55;;;16.60;90.80;;;;;;6164635;23;19997;-79
2022/05/27 05:57:53;;;;;;;4.57;1.48;;;16.80;90.80;;;;;;6114292;23;20006;-79
2022/05/27 06:00:25;;;;;;;3.15;1.42;;;16.80;90.70;;;;;;6164323;23;20005;-78
2022/05/27 06:02:52;;;;;;;2.85;1.42;;;16.80;90.90;;;;;;6156689;23;20250;-79
2022/05/27 06:05:19;;;;;;;3.15;1.08;;;16.70;90.90;;;;;;6194763;23;20113;-80
2022/05/27 06:07:45;;;;;;;3.47;1.48;;;16.80;90.70;;;;;;6142628;23;20275;-79
2022/05/27 06:10:13;;;;;;;4.70;1.45;;;16.80;90.70;;;;;;6193410;23;20060;-79
2022/05/27 06:12:39;;;;;;;2.80;1.27;;;16.80;90.70;;;;;;6190407;23;20190;-79
2022/05/27 06:15:08;;;;;;;3.03;1.52;;;16.90;90.70;;;;;;6192386;23;20365;-78
2022/05/27 06:17:34;;;;;;;2.53;1.30;;;16.90;90.60;;;;;;6191093;23;20005;-78
2022/05/27 06:20:00;;;;;;;3.90;1.60;;;16.90;90.60;;;;;;6193435;23;20012;-78
2022/05/27 06:22:26;;;;;;;4.60;1.40;;;16.70;90.80;;;;;;6193655;23;20012;-79
2022/05/27 06:24:52;;;;;;;5.03;2.00;;;16.70;90.90;;;;;;6193203;23;20047;-79
2022/05/27 06:27:18;;;;;;;2.78;1.50;;;16.70;91.00;;;;;;6167262;23;20000;-79
2022/05/27 06:36:05;;;;;;;5.20;1.55;;;16.70;91.30;;;;;;6193105;23;20231;-78
2022/05/27 06:38:31;;;;;;;4.43;1.80;;;16.80;91.10;;;;;;6166368;23;20065;-80
2022/05/27 06:40:57;;;;;;;4.40;1.63;;;16.90;91.10;;;;;;6166811;23;20005;-79
2022/05/27 06:43:22;;;;;;;3.50;1.70;;;17.00;91.00;;;;;;6193540;23;20047;-78
2022/05/27 06:45:48;;;;;;;4.82;1.83;;;17.00;91.10;;;;;;6191769;23;20017;-78
2022/05/27 06:48:14;;;;;;;5.30;1.75;;;17.00;90.90;;;;;;6166469;23;20012;-78
2022/05/27 06:50:40;;;;;;;4.13;1.75;;;17.00;90.80;;;;;;6141098;23;20036;-79
2022/05/27 06:53:06;;;;;;;4.65;1.80;;;17.00;91.10;;;;;;6192735;23;20060;-78
2022/05/27 06:55:32;;;;;;;4.22;1.70;;;16.90;91.10;;;;;;6166008;23;20294;-80
2022/05/27 06:57:57;;;;;;;4.07;1.90;;;17.00;91.30;;;;;;6192793;23;20039;-79
2022/05/27 07:00:24;;;;;;;4.63;1.83;;;17.00;91.80;;;;;;6192514;23;20009;-79
2022/05/27 07:02:49;;;;;;;4.40;2.03;;;17.00;91.70;;;;;;6140199;23;20233;-79
2022/05/27 07:05:15;;;;;;;4.60;1.83;;;17.00;91.70;;;;;;6192815;23;20008;-80
2022/05/27 07:07:41;;;;;;;4.18;1.67;;;17.10;91.40;;;;;;6165714;23;20334;-79
2022/05/27 07:10:07;;;;;;;3.20;1.90;;;17.10;91.40;;;;;;6193215;23;20055;-79
2022/05/27 07:12:33;;;;;;;6.97;2.05;;;17.10;91.30;;;;;;6192088;23;20004;-79
2022/05/27 07:14:59;;;;;;;4.45;1.55;;;17.10;91.30;;;;;;6192613;23;20120;-80
2022/05/27 07:17:25;;;;;;;3.80;1.90;;;17.20;91.20;;;;;;6192580;23;20013;-81
2022/05/27 07:19:51;;;;;;;3.28;1.73;;;17.20;91.30;;;;;;6166051;23;20342;-80
2022/05/27 07:22:17;;;;;;;3.55;1.80;;;17.20;91.20;;;;;;6192656;23;20012;-80
2022/05/27 07:24:43;;;;;;;3.03;1.70;;;17.20;91.10;;;;;;6192209;23;20005;-81
2022/05/27 07:27:09;;;;;;;5.75;1.58;;;17.30;90.50;;;;;;6142151;23;20013;-78
2022/05/27 07:29:35;;;;;;;3.10;1.60;;;17.30;90.50;;;;;;6192571;23;20020;-78
2022/05/27 07:32:01;;;;;;;5.30;1.77;;;17.20;90.20;;;;;;6166477;23;20013;-79
2022/05/27 07:34:27;;;;;;;4.93;1.80;;;17.00;90.50;;;;;;6193904;23;20008;-79
2022/05/27 07:36:53;;;;;;;4.03;1.73;;;16.90;90.80;;;;;;6195119;23;20020;-78
2022/05/27 07:39:19;;;;;;;5.15;1.90;;;16.90;90.90;;;;;;6148615;23;20015;-77
2022/05/27 07:41:44;;;;;;;6.22;1.90;;;16.70;90.90;;;;;;6197373;23;20005;-77
2022/05/27 07:44:10;;;;;;;3.67;1.48;;;16.80;91.00;;;;;;6173233;23;20012;-78
2022/05/27 07:46:37;;;;;;;3.95;1.67;;;16.80;90.90;;;;;;6191329;23;20012;-77
2022/05/27 07:49:04;;;;;;;6.15;2.13;;;17.00;91.00;;;;;;6192938;23;20001;-77
2022/05/27 07:51:30;;;;;;;3.88;1.48;;;17.10;90.60;;;;;;6192732;23;20001;-78
2022/05/27 07:53:56;;;;;;;4.82;1.75;;;17.20;90.40;;;;;;6191914;23;20282;-78
2022/05/27 07:56:22;;;;;;;4.32;1.50;;;17.30;90.30;;;;;;6192770;23;20001;-76
2022/05/27 07:58:48;;;;;;;4.07;1.52;;;17.40;90.40;;;;;;6191599;23;20009;-77
2022/05/27 08:01:14;;;;;;;4.20;1.63;;;17.50;90.20;;;;;;6165518;23;20015;-79
2022/05/27 08:03:41;;;;;;;3.22;1.85;;;17.60;90.20;;;;;;6191731;23;20031;-77
2022/05/27 08:06:07;;;;;;;3.63;1.60;;;17.70;90.10;;;;;;6193920;23;20012;-77
2022/05/27 08:08:37;;;;;;;2.83;1.40;;;17.90;89.40;;;;;;6194589;23;20008;-78
2022/05/27 08:11:03;;;;;;;3.75;1.50;;;18.10;88.60;;;;;;6143712;23;20005;-79
2022/05/27 08:13:39;;;;;;;4.55;1.67;;;18.20;87.60;;;;;;6193188;23;20286;-80
2022/05/27 08:16:06;;;;;;;6.57;1.45;;;18.50;86.90;;;;;;6193283;23;20013;-76
2022/05/27 08:18:32;;;;;;;2.70;1.08;;;18.50;86.60;;;;;;6193874;23;20263;-78
2022/05/27 08:21:01;;;;;;;3.05;1.63;;;18.50;86.50;;;;;;6193449;23;20047;-80
2022/05/27 08:23:27;;;;;;;4.65;2.00;;;18.50;86.40;;;;;;6194552;23;19996;-78
2022/05/27 08:25:55;;;;;;;2.65;1.23;;;18.50;86.80;;;;;;6193798;23;20001;-78
2022/05/27 08:28:24;;;;;;;3.80;1.40;;;18.70;85.30;;;;;;6194376;23;20001;-78
2022/05/27 08:30:55;;;;;;;3.63;1.40;;;18.50;86.30;;;;;;6193055;23;20020;-78
2022/05/27 08:33:23;;;;;;;3.13;1.40;;;18.40;87.00;;;;;;6143596;23;20061;-78
2022/05/27 08:38:35;;;;;;;3.38;1.23;;;18.40;87.50;;;;;;6194137;23;20279;-80
2022/05/27 08:41:22;;;;;;;3.22;1.30;;;18.30;87.80;;;;;;6194292;23;20009;-78
2022/05/27 08:44:10;;;;;;;3.17;1.38;;;18.10;88.50;;;;;;6193323;23;20024;-77
2022/05/27 08:46:49;;;;;;;3.63;1.20;;;18.20;88.10;;;;;;6193034;23;20020;-79
2022/05/27 08:49:40;;;;;;;4.72;1.67;;;18.40;88.00;;;;;;6143724;23;20004;-77
2022/05/27 08:52:45;;;;;;;4.28;1.40;;;18.60;87.00;;;;;;6143481;23;20223;-77
2022/05/27 09:02:13;;;;;;;1.98;1.05;;;18.50;86.50;;;;;;6166929;23;20033;-76
2022/05/27 09:04:58;;;;;;;4.30;1.58;;;18.60;86.80;;;;;;6143012;23;20068;-78
2022/05/27 09:07:34;;;;;;;4.18;1.30;;;18.90;85.10;;;;;;6168152;23;20005;-77
2022/05/27 09:10:05;;;;;;;4.18;1.73;;;18.90;85.10;;;;;;6167728;23;20005;-79
2022/05/27 09:13:08;;;;;;;4.05;1.30;;;18.90;85.00;;;;;;6193789;23;20028;-77
2022/05/27 09:15:48;;;;;;;5.32;1.65;;;19.10;84.90;;;;;;6143561;23;20302;-78
2022/05/27 09:18:29;;;;;;;4.63;1.30;;;19.30;83.40;;;;;;6193243;23;20303;-78
2022/05/27 09:21:13;;;;;;;3.45;1.27;;;19.30;83.10;;;;;;6192902;23;20069;-78
2022/05/27 09:24:26;;;;;;;3.80;1.38;;;19.30;82.90;;;;;;6193109;23;20356;-78
2022/05/27 09:27:14;;;;;;;4.47;1.75;;;19.50;83.10;;;;;;6105952;23;20017;-79
2022/05/27 09:29:55;;;;;;;4.60;1.30;;;19.70;82.50;;;;;;6131332;23;20010;-79
2022/05/27 09:32:47;;;;;;;2.50;1.08;;;20.00;80.70;;;;;;6179305;23;20016;-77
2022/05/27 09:35:26;;;;;;;2.25;1.20;;;20.10;78.60;;;;;;6193947;23;20417;-78
2022/05/27 09:37:55;;;;;;;4.97;1.30;;;20.20;78.20;;;;;;6167416;23;20007;-78
2022/05/27 09:40:46;;;;;;;3.60;1.10;;;20.50;78.00;;;;;;6193958;23;20055;-77
2022/05/27 09:43:36;;;;;;;3.22;1.25;;;21.00;77.10;;;;;;6194137;23;20001;-78
2022/05/27 09:46:05;;;;;;;2.03;1.08;;;21.50;75.30;;;;;;6192528;23;20027;-79
2022/05/27 09:48:31;;;;;;;3.40;0.98;;;21.60;73.60;;;;;;6193690;23;20056;-79
2022/05/27 09:51:01;;;;;;;2.53;0.95;;;21.40;74.40;;;;;;6192703;23;20012;-79
2022/05/27 09:54:18;;;;;;;3.78;1.30;;;21.30;74.70;;;;;;6193280;23;20060;-78
2022/05/27 09:56:58;;;;;;;2.03;1.00;;;21.40;73.90;;;;;;6101639;23;20007;-78
2022/05/27 09:59:33;;;;;;;3.40;0.90;;;21.10;74.00;;;;;;6193299;23;20072;-77
2022/05/27 10:02:22;;;;;;;3.72;0.82;;;21.00;74.70;;;;;;6165699;23;20032;-79
2022/05/27 10:04:58;;;;;;;2.45;1.20;;;21.10;74.30;;;;;;6166454;23;20001;-79
2022/05/27 10:07:35;;;;;;;3.15;0.90;;;21.20;73.50;;;;;;6193515;23;20060;-79
2022/05/27 10:10:31;;;;;;;3.70;0.98;;;21.20;72.90;;;;;;6166782;23;20009;-78
2022/05/27 10:13:13;;;;;;;3.92;0.82;;;21.20;73.00;;;;;;6191572;23;20014;-78
2022/05/27 10:15:39;;;;;;;2.25;1.00;;;20.90;73.00;;;;;;6192750;23;20029;-79
2022/05/27 10:18:22;;;;;;;2.42;1.05;;;20.70;73.80;;;;;;6166910;23;20008;-79
2022/05/27 10:21:01;;;;;;;2.17;1.08;;;20.70;73.40;;;;;;6165899;23;20017;-78
2022/05/27 10:23:30;;;;;;;3.10;0.95;;;20.70;72.80;;;;;;6142817;23;20009;-78
2022/05/27 10:25:56;;;;;;;1.67;0.90;;;21.00;72.20;;;;;;6166863;23;20027;-78
2022/05/27 10:28:31;;;;;;;3.70;1.00;;;21.20;71.40;;;;;;6167126;23;20345;-79
2022/05/27 10:31:00;;;;;;;2.58;0.93;;;21.00;71.70;;;;;;6191985;23;20021;-78
2022/05/27 10:34:00;;;;;;;2.75;0.90;;;21.40;72.00;;;;;;6193382;23;20001;-79
2022/05/27 10:36:37;;;;;;;3.22;0.82;;;21.80;70.30;;;;;;6144380;23;20005;-79
2022/05/27 10:39:32;;;;;;;3.77;0.90;;;21.90;69.70;;;;;;6192201;23;20035;-78
2022/05/27 10:42:06;;;;;;;2.53;1.00;;;22.30;69.20;;;;;;6151827;23;20424;-80
2022/05/27 10:44:55;;;;;;;1.75;0.90;;;22.20;69.20;;;;;;6167070;23;20056;-79
2022/05/27 10:47:42;;;;;;;1.48;0.60;;;22.80;68.30;;;;;;6192812;23;20013;-79
2022/05/27 10:50:27;;;;;;;2.58;0.70;;;23.20;66.20;;;;;;6193557;23;20011;-79
2022/05/27 10:53:08;;;;;;;3.10;0.70;;;22.80;65.10;;;;;;6192611;23;20420;-79
2022/05/27 10:56:04;;;;;;;1.80;0.68;;;22.90;65.90;;;;;;6166460;23;20069;-79
2022/05/27 11:02:17;;;;;;;1.70;0.65;;;22.80;65.90;;;;;;6192732;23;20043;-76
2022/05/27 11:04:53;;;;;;;1.63;0.50;;;22.50;65.80;;;;;;6166940;23;20027;-78
2022/05/27 11:07:54;;;;;;;2.17;0.77;;;22.20;66.30;;;;;;6142382;23;20081;-78
2022/05/27 11:10:35;;;;;;;1.15;0.65;;;21.80;67.50;;;;;;6101500;23;20203;-80
2022/05/27 11:16:52;;;;;;;1.25;0.70;;;21.40;69.00;;;;;;6101237;23;20127;-79
2022/05/27 11:19:32;;;;;;;3.45;0.65;;;21.60;68.80;;;;;;6101802;23;20010;-78
2022/05/27 11:22:19;;;;;;;1.08;0.47;;;21.50;69.10;;;;;;6101021;23;20021;-79
2022/05/27 11:25:21;;;;;;;1.52;0.50;;;21.60;69.00;;;;;;6101426;23;20010;-80
2022/05/27 11:28:10;;;;;;;2.67;0.63;;;21.80;68.60;;;;;;6076772;23;20300;-79
2022/05/27 11:31:01;;;;;;;1.95;0.80;;;21.80;68.50;;;;;;6101264;23;20042;-79
2022/05/27 11:33:55;;;;;;;1.73;0.68;;;21.50;68.40;;;;;;6077313;23;20077;-78
2022/05/27 11:36:37;;;;;;;2.45;0.68;;;21.60;69.50;;;;;;6077708;23;20101;-78
2022/05/27 11:39:31;;;;;;;3.30;0.70;;;22.10;68.30;;;;;;6077555;23;20006;-78
2022/05/27 11:42:24;;;;;;;2.40;0.50;;;22.60;67.70;;;;;;6103311;23;20033;-79
2022/05/27 11:45:17;;;;;;;1.25;0.60;;;23.40;66.00;;;;;;6088431;23;20014;-77
2022/05/27 11:48:10;;;;;;;2.20;0.63;;;23.20;65.60;;;;;;6168805;23;20009;-78
2022/05/27 11:51:13;;;;;;;1.75;0.68;;;23.20;65.80;;;;;;6192882;23;20052;-79
2022/05/27 11:53:59;;;;;;;2.85;0.90;;;23.00;66.90;;;;;;6166814;23;20073;-79
2022/05/27 11:56:34;;;;;;;1.55;0.70;;;22.50;67.80;;;;;;6192571;23;20262;-79
2022/05/27 11:59:23;;;;;;;1.90;0.70;;;22.40;67.80;;;;;;6191819;23;20009;-77
2022/05/27 12:02:13;;;;;;;1.92;0.68;;;22.00;68.40;;;;;;6190531;23;20013;-78
2022/05/27 12:04:54;;;;;;;2.97;0.70;;;22.20;68.40;;;;;;6159879;23;20013;-76
2022/05/27 12:07:45;;;;;;;3.05;1.13;;;22.70;67.90;;;;;;6160347;23;20183;-76
2022/05/27 12:10:30;;;;;;;1.77;0.70;;;23.00;67.30;;;;;;6160997;23;20020;-76
2022/05/27 12:13:19;;;;;;;1.73;0.77;;;23.00;66.60;;;;;;6160850;23;20009;-77
2022/05/27 12:15:56;;;;;;;3.50;0.80;;;23.00;67.50;;;;;;6159533;23;20029;-76
2022/05/27 12:18:51;;;;;;;2.25;0.88;;;23.00;67.30;;;;;;6160553;23;20005;-76
2022/05/27 12:21:24;;;;;;;3.08;0.80;;;23.00;67.90;;;;;;6148282;23;20020;-76
2022/05/27 12:23:58;;;;;;;1.77;0.70;;;23.10;67.10;;;;;;6161029;23;20025;-76
2022/05/27 12:26:35;;;;;;;1.52;0.68;;;23.20;67.00;;;;;;6160959;23;20006;-75
2022/05/27 12:29:03;;;;;;;3.10;0.80;;;23.10;67.10;;;;;;6160663;23;20017;-77
2022/05/27 12:31:31;;;;;;;2.42;0.73;;;23.00;67.30;;;;;;6159761;23;20206;-78
2022/05/27 12:33:56;;;;;;;4.72;1.17;;;22.60;67.50;;;;;;6160425;23;20540;-77
2022/05/27 12:36:26;;;;;;;1.95;0.70;;;22.70;68.20;;;;;;6187203;23;19997;-77
2022/05/27 12:38:54;;;;;;;3.78;0.50;;;23.00;67.60;;;;;;6192322;23;20012;-77
2022/05/27 12:41:40;;;;;;;2.40;0.70;;;23.60;67.40;;;;;;6193353;23;20037;-77
2022/05/27 12:44:25;;;;;;;0.73;0.40;;;25.90;63.10;;;;;;6192268;23;20011;-78
2022/05/27 12:47:24;;;;;;;1.35;0.50;;;27.80;60.20;;;;;;6167159;23;20025;-76
2022/05/27 12:53:53;;;;;;;0.88;0.38;;;32.00;54.30;;;;;;6191196;23;20056;-78
2022/05/27 13:02:57;;;;;;;4.20;0.70;;;27.50;58.40;;;;;;6109453;23;20036;-78
2022/05/27 13:06:04;;;;;;;1.38;0.52;;;25.90;61.20;;;;;;6105083;23;20015;-77
2022/05/27 13:08:46;;;;;;;2.28;0.80;;;24.90;63.70;;;;;;6061706;23;20002;-78
2022/05/27 13:11:47;;;;;;;3.13;0.70;;;24.50;65.30;;;;;;6081117;23;20285;-79
2022/05/27 13:14:51;;;;;;;2.47;0.60;;;24.20;65.60;;;;;;6104825;23;20006;-78
2022/05/27 13:17:30;;;;;;;2.75;0.80;;;23.90;65.90;;;;;;6103886;23;20014;-78
2022/05/27 13:19:58;;;;;;;;;;;23.90;66.20;;;;;;6105009;23;20021;-78
2022/05/27 13:22:34;;;;;;;2.42;0.65;;;23.80;66.60;;;;;;6104583;23;19901;-79
2022/05/27 13:25:26;;;;;;;2.03;0.60;;;23.60;67.20;;;;;;6103107;23;20010;-77
2022/05/27 13:28:03;;;;;;;1.92;0.77;;;23.30;67.50;;;;;;6080092;23;20077;-78
2022/05/27 13:34:55;;;;;;;2.17;0.70;;;23.10;68.10;;;;;;6104082;23;20125;-77
2022/05/27 13:37:32;;;;;;;1.35;0.70;;;23.00;68.40;;;;;;6104063;23;20500;-79
2022/05/27 13:40:32;;;;;;;3.22;0.90;;;23.20;68.50;;;;;;6102921;23;20010;-78
2022/05/27 13:43:39;;;;;;;3.45;1.02;;;23.10;67.80;;;;;;6102910;23;20006;-79
2022/05/27 13:46:29;;;;;;;2.42;0.70;;;23.10;68.20;;;;;;6168942;23;20242;-78
2022/05/27 13:49:09;;;;;;;1.95;0.77;;;23.40;67.90;;;;;;6194082;23;20034;-78
2022/05/27 13:51:46;;;;;;;1.50;0.60;;;23.40;67.90;;;;;;6168042;23;20287;-79
2022/05/27 13:54:18;;;;;;;1.63;0.73;;;23.40;67.80;;;;;;6168395;23;20008;-79
2022/05/27 13:56:50;;;;;;;2.30;0.70;;;23.60;67.80;;;;;;6168385;23;20098;-78
2022/05/27 13:59:28;;;;;;;1.05;0.47;;;23.50;67.00;;;;;;6194824;23;20064;-79
2022/05/27 14:01:58;;;;;;;1.33;0.50;;;23.30;67.70;;;;;;6192369;23;20036;-79
2022/05/27 14:05:01;;;;;;;6.28;0.70;;;23.40;68.00;;;;;;6168269;23;20303;-79
2022/05/27 14:07:57;;;;;;;4.15;0.73;;;23.00;68.80;;;;;;6194602;23;20099;-81
2022/05/27 14:10:39;;;;;;;2.58;0.70;;;22.60;69.80;;;;;;6194749;23;20208;-80
2022/05/27 14:13:29;;;;;;;1.90;0.75;;;23.10;69.30;;;;;;6194213;23;20287;-78
2022/05/27 14:15:55;;;;;;;4.82;0.70;;;23.30;68.80;;;;;;6179439;23;20023;-79
2022/05/27 14:18:32;;;;;;;2.00;0.82;;;23.70;68.40;;;;;;6166157;23;20036;-78
2022/05/27 14:23:48;;;;;;;3.83;0.90;;;24.30;66.40;;;;;;6194630;23;20048;-79
2022/05/27 14:26:15;;;;;;;1.80;0.70;;;24.00;66.80;;;;;;6167763;23;20001;-78
2022/05/27 14:28:45;;;;;;;2.17;0.80;;;24.30;67.20;;;;;;6192660;23;19993;-78
2022/05/27 14:31:36;;;;;;;1.77;0.73;;;25.10;65.90;;;;;;6193126;23;20079;-78
2022/05/27 14:34:28;;;;;;;3.17;0.88;;;25.70;65.50;;;;;;6193334;23;20183;-79
2022/05/27 14:37:21;;;;;;;3.22;0.70;;;26.60;62.50;;;;;;6102230;23;20028;-79
2022/05/27 14:39:53;;;;;;;1.80;0.50;;;26.00;63.50;;;;;;6193530;23;20008;-78
2022/05/27 14:42:19;;;;;;;1.67;0.60;;;25.80;63.70;;;;;;6192876;23;20286;-79
2022/05/27 14:44:47;;;;;;;2.65;0.40;;;26.10;63.10;;;;;;6193765;23;20031;-79
2022/05/27 14:47:36;;;;;;;2.83;0.40;;;26.20;62.60;;;;;;6192487;23;20017;-79
2022/05/27 14:50:23;;;;;;;3.60;0.60;;;25.70;63.40;;;;;;6193111;23;20008;-80
2022/05/27 14:53:08;;;;;;;0.93;0.30;;;25.10;64.10;;;;;;6143075;23;20349;-79
2022/05/27 14:55:37;;;;;;;1.58;0.43;;;24.70;65.70;;;;;;6179475;23;20175;-76
2022/05/27 14:58:08;;;;;;;1.90;0.47;;;25.50;63.90;;;;;;6194399;23;20012;-78
2022/05/27 15:00:50;;;;;;;2.42;0.47;;;25.30;64.30;;;;;;6193468;23;20080;-80
2022/05/27 15:03:43;;;;;;;2.13;0.50;;;25.00;65.20;;;;;;6168768;23;20104;-79
2022/05/27 15:06:18;;;;;;;1.65;0.50;;;24.70;65.90;;;;;;6078102;23;20081;-80
2022/05/27 15:09:33;;;;;;;2.17;0.40;;;24.40;67.10;;;;;;6167783;23;20059;-83
2022/05/27 15:12:29;;;;;;;2.40;0.73;;;23.80;68.80;;;;;;6193175;23;19997;-80
2022/05/27 15:15:41;;;;;;;;;;;;;;;;;;;;;
2022/05/27 16:01:24;;;;;;;2.28;0.43;;;29.40;56.50;;;;;;6124577;22;20206;-79
2022/05/27 16:03:50;;;;;;;1.33;0.30;;;28.60;57.70;;;;;;6203521;23;19997;-75
2022/05/27 16:06:19;;;;;;;1.00;0.43;;;28.20;58.40;;;;;;6213046;23;20005;-80
2022/05/27 16:08:45;;;;;;;0.73;0.30;;;28.20;58.60;;;;;;6183849;23;20004;-77
2022/05/27 16:11:12;;;;;;;1.15;0.38;;;29.40;57.00;;;;;;6231651;23;20353;-78
2022/05/27 16:13:38;;;;;;;1.58;0.55;;;29.40;56.70;;;;;;6197074;23;20066;-77
2022/05/27 16:18:49;;;;;;;1.10;0.30;;;27.80;58.80;;;;;;6223227;23;20011;-78
2022/05/27 16:21:16;;;;;;;2.25;0.30;;;28.40;58.20;;;;;;6222687;23;20008;-78
2022/05/27 16:28:24;;;;;;;;;;;;;;;;;;;;;
2022/05/27 16:32:14;;;;;;;1.45;0.20;;;30.60;54.10;;;;;;6132532;23;20364;-77
2022/05/27 17:09:30;;;;;;;2.05;0.50;;;24.00;64.90;;;;;;6151286;23;20366;-80
2022/05/27 17:34:25;;;;;;;1.02;0.38;;;28.40;57.70;;;;;;6196224;23;20040;-78
2022/05/27 17:36:54;;;;;;;3.53;0.60;;;28.20;57.30;;;;;;6224159;23;20023;-78
2022/05/27 17:39:21;;;;;;;4.13;0.60;;;27.70;58.00;;;;;;6223255;23;20000;-77
2022/05/27 17:41:47;;;;;;;2.40;0.60;;;28.20;57.80;;;;;;6224190;23;20001;-78
2022/05/27 17:44:13;;;;;;;1.25;0.50;;;28.80;56.80;;;;;;6223716;23;20013;-79
2022/05/27 17:52:21;;;;;;;0.85;0.30;;;28.20;57.30;;;;;;6223516;23;20442;-78
2022/05/27 17:54:50;;;;;;;1.55;0.70;;;28.10;57.50;;;;;;6197782;23;20008;-81
2022/05/27 17:57:23;;;;;;;1.00;0.38;;;27.90;57.90;;;;;;6223437;23;19996;-79
2022/05/27 17:59:51;;;;;;;1.40;0.60;;;27.80;58.00;;;;;;6224078;23;20005;-78
2022/05/27 18:02:19;;;;;;;1.30;0.70;;;28.00;57.40;;;;;;6222645;23;20198;-78
2022/05/27 18:04:44;;;;;;;1.60;0.60;;;26.90;59.20;;;;;;6223762;23;19989;-79
2022/05/27 18:07:10;;;;;;;1.30;0.65;;;26.30;60.40;;;;;;6196576;23;20012;-79
2022/05/27 18:09:36;;;;;;;3.15;0.70;;;26.00;60.90;;;;;;6224451;23;20004;-79
2022/05/27 18:12:02;;;;;;;2.08;0.63;;;25.30;62.50;;;;;;6223145;23;20059;-78
2022/05/27 18:14:28;;;;;;;1.80;0.73;;;24.90;63.10;;;;;;6197266;23;20000;-82
2022/05/27 18:16:55;;;;;;;2.83;0.75;;;24.10;64.70;;;;;;6222773;23;20302;-78
2022/05/27 18:19:22;;;;;;;1.88;0.80;;;23.50;66.40;;;;;;6222944;23;20017;-78
2022/05/27 18:21:47;;;;;;;2.38;0.85;;;23.00;67.20;;;;;;6223288;23;20282;-80
2022/05/27 18:24:14;;;;;;;1.65;0.75;;;22.20;69.10;;;;;;6222876;23;20007;-79
2022/05/27 18:26:40;;;;;;;2.40;0.90;;;21.40;71.20;;;;;;6223286;23;20004;-79
2022/05/27 18:29:06;;;;;;;1.92;0.80;;;20.80;73.20;;;;;;6222982;23;20008;-79
2022/05/27 18:31:31;;;;;;;1.73;1.00;;;20.50;74.30;;;;;;6222866;23;20012;-80
2022/05/27 18:33:57;;;;;;;1.65;0.80;;;20.10;75.50;;;;;;6196831;23;20016;-79
2022/05/27 18:36:23;;;;;;;2.85;1.00;;;19.70;76.60;;;;;;6196460;23;20005;-80
2022/05/27 18:38:52;;;;;;;4.95;1.63;;;19.60;77.00;;;;;;6223375;23;20009;-79
2022/05/27 18:41:19;;;;;;;2.17;0.80;;;19.30;77.80;;;;;;6224227;23;20005;-79
2022/05/27 18:43:48;;;;;;;2.07;1.03;;;18.90;79.20;;;;;;6197103;23;20183;-79
2022/05/27 18:46:14;;;;;;;2.53;0.93;;;18.60;80.00;;;;;;6221553;23;20036;-79
2022/05/27 18:48:40;;;;;;;1.73;1.00;;;18.50;81.20;;;;;;6172183;23;20009;-79
2022/05/27 18:51:06;;;;;;;2.40;1.13;;;18.30;81.30;;;;;;6196070;23;20035;-78
2022/05/27 18:53:32;;;;;;;2.90;1.00;;;18.30;81.50;;;;;;6223504;23;20004;-78
2022/05/27 18:55:57;;;;;;;2.28;0.88;;;18.10;81.90;;;;;;6222077;23;20350;-78
2022/05/27 18:58:23;;;;;;;4.20;1.20;;;17.90;82.50;;;;;;6222397;23;20314;-78
2022/05/27 19:00:49;;;;;;;3.38;1.35;;;17.90;82.70;;;;;;6221727;23;20218;-79
2022/05/27 19:03:15;;;;;;;3.97;1.20;;;17.90;83.20;;;;;;6221819;23;20028;-79
2022/05/27 19:05:41;;;;;;;2.20;1.05;;;17.80;83.30;;;;;;6196683;23;20061;-79
2022/05/27 19:08:09;;;;;;;3.08;1.10;;;17.70;83.40;;;;;;6222657;23;20254;-80
2022/05/27 19:10:36;;;;;;;4.03;1.42;;;17.60;83.90;;;;;;6196485;23;20111;-80
2022/05/27 19:13:02;;;;;;;3.08;1.50;;;17.50;84.10;;;;;;6222532;23;20046;-80
2022/05/27 19:15:29;;;;;;;3.35;1.45;;;17.40;84.40;;;;;;6222163;23;20246;-79
2022/05/27 19:18:03;;;;;;;3.63;1.50;;;17.40;84.80;;;;;;6196500;23;20195;-79
2022/05/27 19:23:13;;;;;;;3.72;1.50;;;17.20;85.60;;;;;;6222192;23;20012;-80
2022/05/27 19:25:41;;;;;;;2.70;1.15;;;17.20;85.70;;;;;;6196147;23;20000;-78
2022/05/27 19:28:07;;;;;;;3.90;1.70;;;17.10;86.00;;;;;;6222685;23;20031;-78
2022/05/27 19:30:32;;;;;;;7.95;1.40;;;17.00;86.40;;;;;;6222089;23;20012;-78
2022/05/27 19:33:01;;;;;;;5.00;1.70;;;17.00;86.60;;;;;;6221894;23;20001;-80
2022/05/27 19:35:27;;;;;;;2.72;1.17;;;17.00;86.90;;;;;;6171035;23;20009;-79
2022/05/27 19:37:54;;;;;;;2.65;1.33;;;16.90;87.40;;;;;;6222725;23;20024;-80
2022/05/27 19:40:21;;;;;;;5.35;1.70;;;16.90;87.80;;;;;;6195712;23;20009;-79
2022/05/27 19:42:46;;;;;;;2.83;1.50;;;16.80;87.90;;;;;;6222876;23;19996;-81
2022/05/27 19:45:12;;;;;;;3.13;1.40;;;16.70;88.10;;;;;;6194827;23;20051;-80
2022/05/27 19:47:38;;;;;;;3.42;1.50;;;16.60;88.50;;;;;;6222923;23;20004;-77
2022/05/27 19:50:05;;;;;;;2.40;1.20;;;16.70;88.70;;;;;;6221003;23;20000;-78
2022/05/27 19:52:32;;;;;;;3.22;1.50;;;16.60;88.70;;;;;;6222508;23;20021;-79
2022/05/27 19:54:58;;;;;;;2.67;1.42;;;16.60;89.10;;;;;;6184680;23;20031;-80
2022/05/27 20:00:09;;;;;;;2.65;1.30;;;16.60;89.30;;;;;;6221633;23;20008;-77
2022/05/27 20:05:19;;;;;;;3.10;1.30;;;16.50;89.60;;;;;;6198231;23;20009;-80
2022/05/27 20:07:45;;;;;;;2.60;1.40;;;16.40;90.00;;;;;;6199356;23;20046;-79
2022/05/27 20:10:25;;;;;;;3.72;1.60;;;16.40;90.10;;;;;;6198551;23;20462;-80
2022/05/27 20:12:51;;;;;;;2.90;1.33;;;16.30;90.10;;;;;;6226398;23;20022;-81
2022/05/27 20:15:23;;;;;;;2.95;1.55;;;16.30;90.40;;;;;;6224645;23;20182;-78
2022/05/27 20:17:51;;;;;;;3.92;1.60;;;16.30;90.40;;;;;;6226170;23;20001;-79
2022/05/27 20:20:18;;;;;;;2.35;1.38;;;16.30;90.50;;;;;;6225408;23;20012;-79
2022/05/27 20:22:44;;;;;;;3.45;1.40;;;16.20;90.60;;;;;;6225827;23;20007;-79
2022/05/27 20:25:11;;;;;;;3.13;1.50;;;16.20;90.70;;;;;;6225746;23;20273;-78
2022/05/27 20:27:37;;;;;;;3.03;1.10;;;16.20;90.70;;;;;;6226864;23;20039;-79
2022/05/27 20:30:04;;;;;;;2.50;1.13;;;16.20;90.80;;;;;;6198859;23;20071;-78
2022/05/27 20:32:30;;;;;;;3.08;1.40;;;16.20;90.90;;;;;;6228632;23;20004;-80
2022/05/27 20:34:55;;;;;;;4.80;1.50;;;16.10;90.90;;;;;;6233580;23;20027;-80
2022/05/27 20:37:21;;;;;;;3.20;1.58;;;16.20;91.00;;;;;;6231591;23;20293;-81
2022/05/27 20:39:49;;;;;;;5.30;1.30;;;16.10;91.10;;;;;;6225831;23;20003;-80
2022/05/27 20:42:22;;;;;;;3.35;1.40;;;16.10;91.20;;;;;;6228569;23;20007;-79
2022/05/27 20:44:48;;;;;;;2.83;1.55;;;16.00;91.30;;;;;;6199929;23;20035;-79
2022/05/27 20:47:18;;;;;;;3.28;1.48;;;16.10;91.30;;;;;;6224417;23;20008;-79
2022/05/27 20:49:45;;;;;;;2.65;1.58;;;16.00;91.40;;;;;;6199870;23;20062;-77
2022/05/27 20:52:11;;;;;;;4.05;1.50;;;16.00;91.50;;;;;;6225336;23;20058;-77
2022/05/27 20:54:38;;;;;;;2.63;1.50;;;15.90;91.50;;;;;;6226304;23;20024;-80
2022/05/27 20:57:04;;;;;;;4.15;1.60;;;15.90;91.70;;;;;;6224288;23;20228;-78
2022/05/27 20:59:31;;;;;;;3.28;1.65;;;15.90;91.70;;;;;;6224553;23;20008;-79
2022/05/27 21:01:57;;;;;;;4.03;1.60;;;15.90;91.80;;;;;;6210956;23;20035;-78
2022/05/27 21:04:43;;;;;;;2.60;1.30;;;15.90;91.80;;;;;;6225066;23;20043;-78
2022/05/27 21:07:09;;;;;;;3.75;1.70;;;15.90;91.80;;;;;;6198390;23;20047;-79
2022/05/27 21:09:35;;;;;;;3.88;1.80;;;15.80;91.80;;;;;;6225717;23;20001;-80